SDR87YF EHRD-EDDC
Flight info
| Callsign | SDR87YF |
|---|---|
| Flight time | 1h 1m |
| Altitude | 37000 |
| Route | ARNEM L620 HMM DCT LARET DCT DESAR DCT OSKAN OSKAN4B |
| Aircraft | A319/M-SDE3FGHIRWY/LB1 |
Departure
| Time | 2026-04-28 15:25 |
|---|---|
| Airport | Rotterdam The Hague Airport (EHRD) |
Arrival
| Time | 2026-04-28 16:26 |
|---|---|
| Airport | Dresden Airport (EDDC) |
| Time | Latitude | Longitude | Altitude | Speed | Heading |
|---|---|---|---|---|---|
| 2026-04-28 14:54 | 51.95045 | 4.43557 | 2 ft | 0 kts | 327° |
| 2026-04-28 14:55 | 51.95042 | 4.43558 | 1 ft | 0 kts | 327° |
| 2026-04-28 15:20 | 51.95043 | 4.43558 | 1 ft | 0 kts | 327° |
| 2026-04-28 15:20 | 51.95046 | 4.43554 | 1 ft | 1 kts | 327° |
| 2026-04-28 15:20 | 51.95066 | 4.43534 | 1 ft | 5 kts | 331° |
| 2026-04-28 15:21 | 51.95086 | 4.43562 | 1 ft | 4 kts | 62° |
| 2026-04-28 15:21 | 51.95108 | 4.43578 | 1 ft | 4 kts | 346° |
| 2026-04-28 15:21 | 51.95148 | 4.43535 | 1 ft | 9 kts | 327° |
| 2026-04-28 15:21 | 51.95204 | 4.43478 | 1 ft | 10 kts | 327° |
| 2026-04-28 15:22 | 51.95242 | 4.43394 | 1 ft | 10 kts | 255° |
| 2026-04-28 15:22 | 51.95202 | 4.43297 | 1 ft | 11 kts | 237° |
| 2026-04-28 15:22 | 51.95159 | 4.43187 | 1 ft | 12 kts | 239° |
| 2026-04-28 15:22 | 51.95124 | 4.43069 | 1 ft | 10 kts | 244° |
| 2026-04-28 15:23 | 51.95105 | 4.42999 | 1 ft | 5 kts | 263° |
| 2026-04-28 15:23 | 51.95124 | 4.42944 | 1 ft | 6 kts | 312° |
| 2026-04-28 15:23 | 51.95158 | 4.42901 | 1 ft | 6 kts | 328° |
| 2026-04-28 15:23 | 51.95197 | 4.42861 | 2 ft | 7 kts | 328° |
| 2026-04-28 15:24 | 51.95234 | 4.42884 | 3 ft | 7 kts | 57° |
| 2026-04-28 15:24 | 51.95314 | 4.43090 | 2 ft | 55 kts | 57° |
| 2026-04-28 15:24 | 51.95655 | 4.43944 | 1 ft | 123 kts | 57° |
| 2026-04-28 15:24 | 51.96154 | 4.45217 | 481 ft | 134 kts | 57° |
| 2026-04-28 15:25 | 51.96649 | 4.46490 | 1182 ft | 133 kts | 58° |
| 2026-04-28 15:25 | 51.97163 | 4.47809 | 1703 ft | 150 kts | 58° |
| 2026-04-28 15:25 | 51.97761 | 4.49352 | 2114 ft | 172 kts | 59° |
| 2026-04-28 15:25 | 51.98421 | 4.51153 | 2530 ft | 199 kts | 64° |
| 2026-04-28 15:26 | 51.99064 | 4.53298 | 3137 ft | 223 kts | 65° |
| 2026-04-28 15:26 | 51.99747 | 4.55656 | 3947 ft | 236 kts | 66° |
| 2026-04-28 15:26 | 52.00144 | 4.58250 | 4919 ft | 242 kts | 88° |
| 2026-04-28 15:26 | 52.00198 | 4.60978 | 5915 ft | 247 kts | 89° |
| 2026-04-28 15:27 | 52.00244 | 4.63804 | 6899 ft | 251 kts | 89° |
| 2026-04-28 15:27 | 52.00290 | 4.66661 | 7867 ft | 255 kts | 89° |
| 2026-04-28 15:27 | 52.00340 | 4.69569 | 8836 ft | 260 kts | 89° |
| 2026-04-28 15:27 | 52.00391 | 4.72530 | 9775 ft | 265 kts | 88° |
| 2026-04-28 15:28 | 52.00443 | 4.75570 | 10539 ft | 276 kts | 88° |
| 2026-04-28 15:28 | 52.00500 | 4.78770 | 10920 ft | 298 kts | 88° |
| 2026-04-28 15:28 | 52.00559 | 4.82209 | 11560 ft | 309 kts | 88° |
| 2026-04-28 15:28 | 52.00618 | 4.85740 | 12308 ft | 316 kts | 88° |
| 2026-04-28 15:29 | 52.00678 | 4.89326 | 13178 ft | 319 kts | 88° |
| 2026-04-28 15:29 | 52.00741 | 4.92956 | 13972 ft | 325 kts | 88° |
| 2026-04-28 15:29 | 52.00804 | 4.96673 | 14609 ft | 332 kts | 88° |
| 2026-04-28 15:29 | 52.00866 | 5.00435 | 15383 ft | 334 kts | 88° |
| 2026-04-28 15:30 | 52.00928 | 5.04216 | 16134 ft | 337 kts | 88° |
| 2026-04-28 15:30 | 52.00990 | 5.08046 | 16831 ft | 342 kts | 88° |
| 2026-04-28 15:30 | 52.01049 | 5.11916 | 17602 ft | 344 kts | 88° |
| 2026-04-28 15:30 | 52.01105 | 5.15809 | 18382 ft | 346 kts | 88° |
| 2026-04-28 15:31 | 52.01161 | 5.19757 | 18986 ft | 351 kts | 88° |
| 2026-04-28 15:31 | 52.01217 | 5.23727 | 19615 ft | 354 kts | 88° |
| 2026-04-28 15:31 | 52.01272 | 5.27680 | 20276 ft | 356 kts | 88° |
| 2026-04-28 15:31 | 52.01327 | 5.31730 | 20836 ft | 362 kts | 88° |
| 2026-04-28 15:32 | 52.01383 | 5.35833 | 21491 ft | 364 kts | 88° |
| 2026-04-28 15:32 | 52.01419 | 5.38572 | 21939 ft | 365 kts | 88° |
| 2026-04-28 15:32 | 52.01490 | 5.44104 | 22634 ft | 374 kts | 88° |
| 2026-04-28 15:32 | 52.01542 | 5.48336 | 23270 ft | 376 kts | 88° |
| 2026-04-28 15:33 | 52.01591 | 5.52595 | 23867 ft | 379 kts | 88° |
| 2026-04-28 15:33 | 52.01638 | 5.56908 | 24329 ft | 383 kts | 88° |
| 2026-04-28 15:33 | 52.01683 | 5.61246 | 24867 ft | 385 kts | 88° |
| 2026-04-28 15:33 | 52.01726 | 5.65606 | 25350 ft | 388 kts | 88° |
| 2026-04-28 15:34 | 52.01771 | 5.70001 | 25802 ft | 391 kts | 88° |
| 2026-04-28 15:34 | 52.01817 | 5.74436 | 26319 ft | 393 kts | 88° |
| 2026-04-28 15:34 | 52.01863 | 5.78894 | 26766 ft | 396 kts | 88° |
| 2026-04-28 15:34 | 52.01902 | 5.83377 | 27215 ft | 399 kts | 88° |
| 2026-04-28 15:35 | 52.01940 | 5.87902 | 27708 ft | 401 kts | 88° |
| 2026-04-28 15:35 | 52.02017 | 5.97034 | 28577 ft | 407 kts | 87° |
| 2026-04-28 15:35 | 52.02054 | 6.01636 | 29025 ft | 410 kts | 88° |
| 2026-04-28 15:36 | 52.02089 | 6.06297 | 29427 ft | 413 kts | 88° |
| 2026-04-28 15:36 | 52.02118 | 6.10973 | 29878 ft | 415 kts | 88° |
| 2026-04-28 15:36 | 52.02144 | 6.15617 | 30277 ft | 419 kts | 88° |
| 2026-04-28 15:36 | 52.02171 | 6.20369 | 30611 ft | 421 kts | 87° |
| 2026-04-28 15:37 | 52.02195 | 6.25126 | 30971 ft | 423 kts | 88° |
| 2026-04-28 15:37 | 52.02220 | 6.29912 | 31283 ft | 426 kts | 88° |
| 2026-04-28 15:37 | 52.02246 | 6.34742 | 31625 ft | 427 kts | 87° |
| 2026-04-28 15:37 | 52.02263 | 6.37944 | 31857 ft | 429 kts | 87° |
| 2026-04-28 15:38 | 52.02296 | 6.44458 | 32241 ft | 433 kts | 87° |
| 2026-04-28 15:38 | 52.02314 | 6.49344 | 32674 ft | 432 kts | 88° |
| 2026-04-28 15:38 | 52.02326 | 6.54225 | 33086 ft | 433 kts | 88° |
| 2026-04-28 15:38 | 52.02335 | 6.59107 | 33511 ft | 432 kts | 88° |
| 2026-04-28 15:39 | 52.02341 | 6.62338 | 33822 ft | 431 kts | 88° |
| 2026-04-28 15:39 | 52.02348 | 6.67206 | 34251 ft | 431 kts | 88° |
| 2026-04-28 15:39 | 52.02356 | 6.72064 | 34622 ft | 430 kts | 87° |
| 2026-04-28 15:39 | 52.02178 | 6.76916 | 34965 ft | 432 kts | 96° |
| 2026-04-28 15:40 | 52.01540 | 6.81709 | 35251 ft | 436 kts | 102° |
| 2026-04-28 15:40 | 52.00781 | 6.86472 | 35574 ft | 436 kts | 101° |
| 2026-04-28 15:40 | 52.00027 | 6.91249 | 35803 ft | 438 kts | 102° |
| 2026-04-28 15:40 | 51.99266 | 6.96064 | 36008 ft | 441 kts | 102° |
| 2026-04-28 15:41 | 51.98500 | 7.00893 | 36273 ft | 442 kts | 101° |
| 2026-04-28 15:41 | 51.97732 | 7.05722 | 36552 ft | 442 kts | 102° |
| 2026-04-28 15:41 | 51.96959 | 7.10555 | 36827 ft | 443 kts | 102° |
| 2026-04-28 15:41 | 51.96146 | 7.15379 | 37093 ft | 444 kts | 103° |
| 2026-04-28 15:42 | 51.95276 | 7.20194 | 37222 ft | 444 kts | 104° |
| 2026-04-28 15:42 | 51.94373 | 7.24972 | 37238 ft | 442 kts | 105° |
| 2026-04-28 15:42 | 51.92546 | 7.34475 | 37250 ft | 442 kts | 105° |
| 2026-04-28 15:43 | 51.90738 | 7.43970 | 37241 ft | 445 kts | 104° |
| 2026-04-28 15:43 | 51.88939 | 7.53586 | 37242 ft | 446 kts | 104° |
| 2026-04-28 15:44 | 51.87134 | 7.63184 | 37242 ft | 445 kts | 104° |
| 2026-04-28 15:44 | 51.85782 | 7.72911 | 37245 ft | 441 kts | 91° |
| 2026-04-28 15:45 | 51.85779 | 7.82747 | 37262 ft | 440 kts | 87° |
| 2026-04-28 15:45 | 51.85824 | 7.92678 | 37242 ft | 441 kts | 87° |
| 2026-04-28 15:46 | 51.85852 | 8.02569 | 37239 ft | 442 kts | 86° |
| 2026-04-28 15:46 | 51.85876 | 8.12509 | 37247 ft | 442 kts | 87° |
| 2026-04-28 15:47 | 51.85901 | 8.22478 | 37240 ft | 443 kts | 88° |
| 2026-04-28 15:47 | 51.85920 | 8.32445 | 37255 ft | 443 kts | 87° |
| 2026-04-28 15:48 | 51.85928 | 8.42430 | 37250 ft | 444 kts | 87° |
| 2026-04-28 15:48 | 51.85921 | 8.52447 | 37238 ft | 445 kts | 87° |
| 2026-04-28 15:49 | 51.85913 | 8.62461 | 37242 ft | 445 kts | 88° |
| 2026-04-28 15:49 | 51.85895 | 8.72488 | 37248 ft | 446 kts | 88° |
| 2026-04-28 15:50 | 51.85869 | 8.82528 | 37272 ft | 446 kts | 88° |
| 2026-04-28 15:50 | 51.85834 | 8.92525 | 37263 ft | 447 kts | 88° |
| 2026-04-28 15:51 | 51.85782 | 9.02599 | 37263 ft | 447 kts | 88° |
| 2026-04-28 15:51 | 51.85730 | 9.12681 | 37262 ft | 447 kts | 88° |
| 2026-04-28 15:52 | 51.85663 | 9.22708 | 37273 ft | 448 kts | 88° |
| 2026-04-28 15:52 | 51.85597 | 9.32778 | 37266 ft | 448 kts | 88° |
| 2026-04-28 15:53 | 51.85528 | 9.42860 | 37266 ft | 448 kts | 88° |
| 2026-04-28 15:53 | 51.85444 | 9.52930 | 37268 ft | 448 kts | 88° |
| 2026-04-28 15:54 | 51.85344 | 9.62952 | 37266 ft | 448 kts | 88° |
| 2026-04-28 15:54 | 51.85235 | 9.73027 | 37265 ft | 448 kts | 89° |
| 2026-04-28 15:55 | 51.85118 | 9.83097 | 37272 ft | 448 kts | 89° |
| 2026-04-28 15:55 | 51.84994 | 9.93189 | 37261 ft | 449 kts | 89° |
| 2026-04-28 15:56 | 51.84863 | 10.03286 | 37264 ft | 449 kts | 89° |
| 2026-04-28 15:56 | 51.84731 | 10.13339 | 37276 ft | 449 kts | 89° |
| 2026-04-28 15:57 | 51.84584 | 10.23443 | 37295 ft | 449 kts | 89° |
| 2026-04-28 15:57 | 51.84427 | 10.33557 | 37299 ft | 449 kts | 89° |
| 2026-04-28 15:58 | 51.84261 | 10.43652 | 37286 ft | 449 kts | 89° |
| 2026-04-28 15:58 | 51.84085 | 10.53755 | 37282 ft | 450 kts | 89° |
| 2026-04-28 15:59 | 51.83904 | 10.63879 | 37281 ft | 450 kts | 89° |
| 2026-04-28 15:59 | 51.83709 | 10.73942 | 37283 ft | 450 kts | 89° |
| 2026-04-28 16:00 | 51.83494 | 10.84095 | 37291 ft | 452 kts | 91° |
| 2026-04-28 16:00 | 51.82294 | 10.94116 | 37277 ft | 456 kts | 102° |
| 2026-04-28 16:01 | 51.80686 | 11.04019 | 37279 ft | 456 kts | 102° |
| 2026-04-28 16:01 | 51.79088 | 11.13873 | 37281 ft | 456 kts | 102° |
| 2026-04-28 16:02 | 51.77472 | 11.23799 | 37307 ft | 457 kts | 102° |
| 2026-04-28 16:02 | 51.75850 | 11.33734 | 37297 ft | 457 kts | 102° |
| 2026-04-28 16:03 | 51.74220 | 11.43666 | 37291 ft | 458 kts | 103° |
| 2026-04-28 16:03 | 51.72560 | 11.53606 | 37290 ft | 459 kts | 103° |
| 2026-04-28 16:04 | 51.70905 | 11.63486 | 37290 ft | 459 kts | 103° |
| 2026-04-28 16:04 | 51.69243 | 11.73429 | 37284 ft | 460 kts | 103° |
| 2026-04-28 16:05 | 51.67548 | 11.83411 | 36940 ft | 463 kts | 106° |
| 2026-04-28 16:05 | 51.66222 | 11.88149 | 36651 ft | 466 kts | 122° |
| 2026-04-28 16:05 | 51.64356 | 11.92390 | 35846 ft | 464 kts | 126° |
| 2026-04-28 16:06 | 51.62405 | 11.96563 | 34952 ft | 465 kts | 127° |
| 2026-04-28 16:06 | 51.60431 | 12.00701 | 34093 ft | 461 kts | 128° |
| 2026-04-28 16:06 | 51.58480 | 12.04748 | 33254 ft | 454 kts | 128° |
| 2026-04-28 16:06 | 51.56579 | 12.08685 | 32469 ft | 447 kts | 128° |
| 2026-04-28 16:07 | 51.54692 | 12.12610 | 31720 ft | 440 kts | 128° |
| 2026-04-28 16:07 | 51.52837 | 12.16483 | 30953 ft | 435 kts | 128° |
| 2026-04-28 16:07 | 51.49233 | 12.24038 | 29337 ft | 423 kts | 127° |
| 2026-04-28 16:08 | 51.47425 | 12.27818 | 28514 ft | 418 kts | 127° |
| 2026-04-28 16:08 | 51.45664 | 12.31492 | 27733 ft | 413 kts | 127° |
| 2026-04-28 16:08 | 51.43921 | 12.35118 | 26995 ft | 408 kts | 127° |
| 2026-04-28 16:09 | 51.40506 | 12.42207 | 25375 ft | 402 kts | 127° |
| 2026-04-28 16:09 | 51.38752 | 12.45838 | 23723 ft | 422 kts | 127° |
| 2026-04-28 16:09 | 51.36903 | 12.49663 | 21840 ft | 452 kts | 127° |
| 2026-04-28 16:10 | 51.32927 | 12.57870 | 18863 ft | 466 kts | 127° |
| 2026-04-28 16:10 | 51.30947 | 12.61946 | 17351 ft | 460 kts | 127° |
| 2026-04-28 16:10 | 51.27090 | 12.69857 | 14807 ft | 441 kts | 127° |
| 2026-04-28 16:11 | 51.23519 | 12.77145 | 14103 ft | 391 kts | 126° |
| 2026-04-28 16:11 | 51.20277 | 12.83758 | 13568 ft | 367 kts | 126° |
| 2026-04-28 16:12 | 51.17220 | 12.89992 | 13026 ft | 346 kts | 126° |
| 2026-04-28 16:12 | 51.15755 | 12.92979 | 12774 ft | 338 kts | 126° |
| 2026-04-28 16:13 | 51.12926 | 12.98738 | 12080 ft | 329 kts | 126° |
| 2026-04-28 16:13 | 51.11519 | 13.01601 | 11655 ft | 328 kts | 126° |
| 2026-04-28 16:13 | 51.08717 | 13.07275 | 10807 ft | 325 kts | 127° |
| 2026-04-28 16:14 | 51.07009 | 13.10718 | 10273 ft | 323 kts | 127° |
| 2026-04-28 16:16 | 51.06257 | 13.12236 | 10076 ft | 321 kts | 126° |
| 2026-04-28 16:16 | 51.05375 | 13.14012 | 9927 ft | 314 kts | 127° |
| 2026-04-28 16:17 | 51.02745 | 13.19295 | 9312 ft | 299 kts | 126° |
| 2026-04-28 16:17 | 51.01458 | 13.21885 | 8665 ft | 297 kts | 127° |
| 2026-04-28 16:17 | 51.00189 | 13.24435 | 8060 ft | 293 kts | 127° |
| 2026-04-28 16:17 | 50.98927 | 13.26962 | 7322 ft | 293 kts | 128° |
| 2026-04-28 16:18 | 50.97660 | 13.29480 | 6752 ft | 288 kts | 128° |
| 2026-04-28 16:18 | 50.96448 | 13.31893 | 6477 ft | 271 kts | 127° |
| 2026-04-28 16:18 | 50.95455 | 13.34316 | 6251 ft | 255 kts | 107° |
| 2026-04-28 16:18 | 50.95202 | 13.36965 | 6047 ft | 242 kts | 87° |
| 2026-04-28 16:19 | 50.95176 | 13.39592 | 5825 ft | 235 kts | 88° |
| 2026-04-28 16:19 | 50.95137 | 13.42153 | 5599 ft | 229 kts | 88° |
| 2026-04-28 16:19 | 50.95097 | 13.44650 | 5368 ft | 224 kts | 88° |
| 2026-04-28 16:19 | 50.95057 | 13.47084 | 5137 ft | 217 kts | 88° |
| 2026-04-28 16:20 | 50.95048 | 13.49437 | 4928 ft | 208 kts | 80° |
| 2026-04-28 16:20 | 50.95450 | 13.51582 | 4715 ft | 200 kts | 60° |
| 2026-04-28 16:20 | 50.96274 | 13.53311 | 4505 ft | 195 kts | 42° |
| 2026-04-28 16:20 | 50.97295 | 13.54702 | 4304 ft | 193 kts | 40° |
| 2026-04-28 16:21 | 50.98306 | 13.56079 | 4154 ft | 187 kts | 40° |
| 2026-04-28 16:21 | 50.99257 | 13.57376 | 4060 ft | 179 kts | 40° |
| 2026-04-28 16:21 | 51.00192 | 13.58653 | 3940 ft | 176 kts | 41° |
| 2026-04-28 16:21 | 51.01111 | 13.59907 | 3746 ft | 171 kts | 40° |
| 2026-04-28 16:22 | 51.01988 | 13.61105 | 3529 ft | 162 kts | 42° |
| 2026-04-28 16:22 | 51.02829 | 13.62254 | 3308 ft | 156 kts | 41° |
| 2026-04-28 16:22 | 51.03627 | 13.63345 | 3104 ft | 146 kts | 42° |
| 2026-04-28 16:22 | 51.04371 | 13.64363 | 2914 ft | 137 kts | 42° |
| 2026-04-28 16:23 | 51.05086 | 13.65341 | 2733 ft | 135 kts | 42° |
| 2026-04-28 16:23 | 51.05786 | 13.66300 | 2546 ft | 131 kts | 42° |
| 2026-04-28 16:23 | 51.06472 | 13.67240 | 2376 ft | 130 kts | 41° |
| 2026-04-28 16:23 | 51.07148 | 13.68167 | 2194 ft | 130 kts | 42° |
| 2026-04-28 16:24 | 51.07832 | 13.69104 | 2022 ft | 128 kts | 43° |
| 2026-04-28 16:24 | 51.08507 | 13.70029 | 1847 ft | 128 kts | 43° |
| 2026-04-28 16:24 | 51.09185 | 13.70959 | 1668 ft | 128 kts | 41° |
| 2026-04-28 16:24 | 51.09864 | 13.71891 | 1473 ft | 129 kts | 42° |
| 2026-04-28 16:25 | 51.10313 | 13.72509 | 1360 ft | 129 kts | 40° |
| 2026-04-28 16:25 | 51.10991 | 13.73438 | 1189 ft | 128 kts | 40° |
| 2026-04-28 16:25 | 51.11663 | 13.74362 | 1013 ft | 127 kts | 40° |
| 2026-04-28 16:25 | 51.12337 | 13.75289 | 852 ft | 128 kts | 39° |
| 2026-04-28 16:26 | 51.13163 | 13.76428 | 749 ft | 100 kts | 41° |
| 2026-04-28 16:26 | 51.13559 | 13.76971 | 735 ft | 50 kts | 40° |
| 2026-04-28 16:26 | 51.13723 | 13.77197 | 729 ft | 43 kts | 41° |
| 2026-04-28 16:26 | 51.13899 | 13.77439 | 723 ft | 20 kts | 43° |
| 2026-04-28 16:27 | 51.13894 | 13.77522 | 724 ft | 6 kts | 129° |
| 2026-04-28 16:27 | 51.13852 | 13.77599 | 722 ft | 13 kts | 131° |
| 2026-04-28 16:27 | 51.13718 | 13.77668 | 716 ft | 13 kts | 221° |
| 2026-04-28 16:28 | 51.13641 | 13.77562 | 721 ft | 16 kts | 221° |
| 2026-04-28 16:28 | 51.13550 | 13.77435 | 724 ft | 19 kts | 221° |
| 2026-04-28 16:28 | 51.13444 | 13.77290 | 732 ft | 21 kts | 221° |
| 2026-04-28 16:28 | 51.13328 | 13.77131 | 739 ft | 23 kts | 221° |
| 2026-04-28 16:29 | 51.13075 | 13.76783 | 750 ft | 23 kts | 221° |
| 2026-04-28 16:29 | 51.12841 | 13.76461 | 754 ft | 13 kts | 220° |
| 2026-04-28 16:30 | 51.12781 | 13.76476 | 752 ft | 11 kts | 129° |
| 2026-04-28 16:30 | 51.12725 | 13.76574 | 750 ft | 12 kts | 131° |
| 2026-04-28 16:30 | 51.12676 | 13.76666 | 752 ft | 10 kts | 130° |
| 2026-04-28 16:30 | 51.12630 | 13.76652 | 751 ft | 7 kts | 224° |
| 2026-04-28 16:31 | 51.12599 | 13.76609 | 752 ft | 4 kts | 220° |
| 2026-04-28 16:31 | 51.12596 | 13.76606 | 752 ft | 1 kts | 221° |
| 2026-04-28 16:31 | 51.12593 | 13.76601 | 753 ft | 0 kts | 220° |